Time;durP1;ratioP1;P1;durP2;ratioP2;P2;SDS_P1;SDS_P2;PMS_P1;PMS_P2;Temp;Humidity;BMP_temperature;BMP_pressure;BME280_temperature;BME280_humidity;BME280_pressure;Samples;Min_cycle;Max_cycle;Signal;HPM_P1;HPM_P2
2021/08/09 00:01:57;;;;;;;14.07;5.35;;;;;;;13.64;100.00;101182.78;3587543;40;20041;-62
2021/08/09 00:04:24;;;;;;;13.45;5.20;;;;;;;13.57;100.00;101176.25;3587531;39;20060;-62
2021/08/09 00:06:52;;;;;;;16.13;5.35;;;;;;;13.64;100.00;101166.53;3587813;39;20361;-62
2021/08/09 00:09:19;;;;;;;9.95;4.65;;;;;;;13.63;100.00;101167.56;3587867;39;20056;-62
2021/08/09 00:11:45;;;;;;;12.82;5.05;;;;;;;13.61;100.00;101174.97;3587819;39;20029;-62
2021/08/09 00:14:11;;;;;;;16.40;5.45;;;;;;;13.61;100.00;101177.66;3586275;39;20295;-62
2021/08/09 00:19:20;;;;;;;11.50;4.93;;;;;;;13.59;100.00;101185.09;3643582;22;20051;-62
2021/08/09 00:21:46;;;;;;;10.43;4.35;;;;;;;13.60;100.00;101183.22;3594974;39;20035;-62
2021/08/09 00:24:14;;;;;;;11.27;4.53;;;;;;;13.51;100.00;101187.66;3595893;40;20037;-61
2021/08/09 00:26:40;;;;;;;15.77;4.88;;;;;;;13.49;100.00;101186.97;3597790;40;20027;-61
2021/08/09 00:29:07;;;;;;;18.77;4.88;;;;;;;13.48;100.00;101187.97;3595177;39;20029;-62
2021/08/09 00:31:33;;;;;;;13.07;5.50;;;;;;;13.51;100.00;101193.06;3597968;39;20036;-62
2021/08/09 00:34:00;;;;;;;13.07;4.85;;;;;;;13.51;100.00;101198.47;3594675;39;20039;-61
2021/08/09 00:36:27;;;;;;;15.70;4.95;;;;;;;13.52;100.00;101199.34;3596133;39;20119;-62
2021/08/09 00:38:53;;;;;;;15.05;5.05;;;;;;;13.48;100.00;101198.78;3593018;39;20040;-62
2021/08/09 00:41:21;;;;;;;10.93;4.80;;;;;;;13.46;100.00;101195.38;3596800;39;20036;-62
2021/08/09 00:43:47;;;;;;;15.52;4.72;;;;;;;13.43;100.00;101195.66;3594506;39;20038;-61
2021/08/09 00:46:14;;;;;;;13.88;4.68;;;;;;;13.44;100.00;101203.63;3595938;39;20386;-62
2021/08/09 00:48:40;;;;;;;16.42;4.97;;;;;;;13.37;100.00;101198.94;3593987;39;20409;-62
2021/08/09 00:51:09;;;;;;;18.98;5.53;;;;;;;13.30;100.00;101207.59;3594876;39;20052;-61
2021/08/09 00:53:35;;;;;;;17.90;5.35;;;;;;;13.35;100.00;101200.94;3591931;39;20028;-62
2021/08/09 00:56:03;;;;;;;15.93;5.95;;;;;;;13.31;100.00;101209.31;3595329;39;20038;-61
2021/08/09 00:58:31;;;;;;;12.77;5.18;;;;;;;13.34;100.00;101213.63;3596528;39;20040;-62
2021/08/09 01:00:57;;;;;;;17.52;5.53;;;;;;;13.36;100.00;101210.78;3596486;39;20033;-62
2021/08/09 01:03:24;;;;;;;15.52;5.00;;;;;;;13.30;100.00;101202.19;3596578;39;20040;-62
2021/08/09 01:05:51;;;;;;;17.88;5.55;;;;;;;13.30;100.00;101201.34;3594810;40;20289;-62
2021/08/09 01:08:28;;;;;;;15.90;5.88;;;;;;;13.31;100.00;101209.31;3596342;39;20090;-62
2021/08/09 01:11:03;;;;;;;15.88;5.45;;;;;;;13.29;100.00;101205.91;3597870;39;20374;-62
2021/08/09 01:13:40;;;;;;;14.40;5.30;;;;;;;13.32;100.00;101211.03;3598355;39;20043;-63
2021/08/09 01:19:27;;;;;;;;;;;;;;;13.28;100.00;101214.16;3620336;22;20048;-63
2021/08/09 01:21:59;;;;;;;12.80;5.28;;;;;;;13.31;100.00;101212.03;3605981;39;19962;-62
2021/08/09 01:24:32;;;;;;;17.65;5.80;;;;;;;13.31;100.00;101225.53;3605467;39;20394;-62
2021/08/09 01:27:07;;;;;;;16.45;5.30;;;;;;;13.30;100.00;101217.56;3608891;39;20067;-62
2021/08/09 01:29:43;;;;;;;14.38;5.38;;;;;;;13.28;100.00;101211.44;3607771;39;20043;-63
2021/08/09 01:32:11;;;;;;;17.27;5.57;;;;;;;13.29;100.00;101216.72;3608268;39;20317;-62
2021/08/09 01:34:38;;;;;;;12.55;5.28;;;;;;;13.25;100.00;101214.44;3607915;39;20396;-62
2021/08/09 01:37:05;;;;;;;16.83;6.32;;;;;;;13.21;100.00;101223.84;3608472;39;20313;-62
2021/08/09 01:39:32;;;;;;;14.57;5.90;;;;;;;13.19;100.00;101224.00;3608157;39;20032;-62
2021/08/09 01:41:59;;;;;;;17.27;6.35;;;;;;;13.15;100.00;101219.88;3605819;39;20383;-63
2021/08/09 01:44:26;;;;;;;12.32;5.30;;;;;;;13.15;100.00;101226.13;3606593;39;20061;-62
2021/08/09 01:46:54;;;;;;;15.57;5.40;;;;;;;13.11;100.00;101221.16;3608372;39;20040;-62
2021/08/09 01:49:22;;;;;;;14.63;5.40;;;;;;;13.08;100.00;101221.44;3608686;39;20069;-62
2021/08/09 01:51:49;;;;;;;18.00;5.78;;;;;;;13.09;100.00;101228.56;3608203;39;20028;-62
2021/08/09 01:54:16;;;;;;;15.32;6.50;;;;;;;13.05;100.00;101232.53;3606479;39;20032;-62
2021/08/09 01:56:43;;;;;;;18.75;6.40;;;;;;;13.10;100.00;101228.41;3603399;39;20032;-62
2021/08/09 01:59:10;;;;;;;15.77;5.40;;;;;;;13.09;100.00;101215.91;3608703;39;20106;-62
2021/08/09 02:01:36;;;;;;;19.58;5.80;;;;;;;13.08;100.00;101224.16;3607428;39;20043;-62
2021/08/09 02:04:04;;;;;;;14.57;5.43;;;;;;;13.08;100.00;101224.16;3607322;39;20039;-62
2021/08/09 02:06:31;;;;;;;13.50;5.15;;;;;;;13.09;100.00;101217.75;3608915;39;20356;-62
2021/08/09 02:11:27;;;;;;;14.88;4.78;;;;;;;13.08;100.00;101226.84;3594099;22;20035;-62
2021/08/09 02:13:58;;;;;;;19.08;5.10;;;;;;;13.03;100.00;101221.00;3656839;22;20064;-63
2021/08/09 02:16:31;;;;;;;14.20;5.30;;;;;;;13.05;100.00;101225.28;3595830;39;20318;-62
2021/08/09 02:19:01;;;;;;;18.95;5.22;;;;;;;13.08;100.00;101218.75;3597457;39;20042;-62
2021/08/09 02:21:34;;;;;;;20.05;5.80;;;;;;;13.06;100.00;101218.00;3598814;39;20104;-62
2021/08/09 02:24:07;;;;;;;17.70;5.38;;;;;;;13.07;100.00;101228.72;3597061;40;20031;-63
2021/08/09 02:26:37;;;;;;;18.42;5.38;;;;;;;13.09;100.00;101228.56;3597103;40;20055;-62
2021/08/09 02:29:05;;;;;;;;;;;;;;;13.09;100.00;101226.72;3598090;39;20052;-62
2021/08/09 02:31:34;;;;;;;17.42;5.78;;;;;;;13.05;100.00;101230.69;3597982;39;19932;-62
2021/08/09 02:34:02;;;;;;;17.33;5.32;;;;;;;13.04;100.00;101234.38;3597091;39;20298;-63
2021/08/09 02:36:31;;;;;;;17.88;5.47;;;;;;;13.08;100.00;101237.66;3597587;39;20066;-63
2021/08/09 02:39:00;;;;;;;21.10;5.35;;;;;;;13.04;100.00;101239.78;3597659;39;20040;-63
2021/08/09 02:41:27;;;;;;;24.23;5.63;;;;;;;13.03;100.00;101237.22;3597721;39;20034;-62
2021/08/09 02:43:54;;;;;;;19.73;6.30;;;;;;;13.08;100.00;101234.97;3596818;39;20264;-62
2021/08/09 02:46:21;;;;;;;13.77;5.30;;;;;;;13.11;100.00;101234.66;3597992;39;20436;-62
2021/08/09 02:48:48;;;;;;;18.23;5.85;;;;;;;13.11;100.00;101235.50;3593992;39;20024;-63
2021/08/09 02:51:17;;;;;;;18.70;5.43;;;;;;;13.09;100.00;101232.13;3594250;39;20048;-63
2021/08/09 02:53:46;;;;;;;17.58;5.32;;;;;;;13.10;100.00;101236.53;3595326;39;20048;-62
2021/08/09 02:56:13;;;;;;;21.00;6.15;;;;;;;13.13;100.00;101238.06;3596237;39;20052;-62
2021/08/09 02:58:40;;;;;;;17.63;5.90;;;;;;;13.17;100.00;101231.38;3596802;39;20024;-63
2021/08/09 03:01:08;;;;;;;15.77;5.55;;;;;;;13.15;100.00;101236.09;3595835;40;20080;-63
2021/08/09 03:03:38;;;;;;;14.77;5.40;;;;;;;13.12;100.00;101233.69;3597440;39;20040;-63
2021/08/09 03:06:05;;;;;;;17.63;5.35;;;;;;;13.12;100.00;101237.22;3597173;39;20024;-62
2021/08/09 03:08:32;;;;;;;16.88;5.35;;;;;;;13.08;100.00;101233.09;3596986;39;20044;-62
2021/08/09 03:11:00;;;;;;;20.20;5.72;;;;;;;13.04;100.00;101238.94;3597482;39;20276;-62
2021/08/09 03:13:27;;;;;;;14.63;5.50;;;;;;;13.06;100.00;101243.22;3597561;39;20036;-62
2021/08/09 03:15:53;;;;;;;16.98;6.03;;;;;;;13.09;100.00;101242.06;3597820;39;20058;-62
2021/08/09 03:18:20;;;;;;;17.45;5.13;;;;;;;13.02;100.00;101241.78;3597839;39;20045;-63
2021/08/09 03:20:46;;;;;;;17.55;5.43;;;;;;;13.05;100.00;101240.66;3596151;39;20383;-62
2021/08/09 03:23:13;;;;;;;21.20;5.40;;;;;;;13.06;100.00;101236.94;3596258;39;20042;-62
2021/08/09 03:25:39;;;;;;;17.95;4.97;;;;;;;13.03;100.00;101248.03;3597436;39;20048;-62
2021/08/09 03:28:08;;;;;;;16.85;5.57;;;;;;;13.05;100.00;101246.06;3596695;39;20036;-62
2021/08/09 03:30:34;;;;;;;18.83;5.57;;;;;;;13.04;100.00;101239.78;3596295;39;20036;-62
2021/08/09 03:33:01;;;;;;;15.10;6.18;;;;;;;13.07;100.00;101247.63;3592982;39;20121;-62
2021/08/09 03:35:27;;;;;;;17.70;5.18;;;;;;;13.04;100.00;101247.88;3598180;39;20056;-62
2021/08/09 03:37:53;;;;;;;14.20;5.70;;;;;;;13.01;100.00;101255.44;3597675;39;20076;-62
2021/08/09 03:40:20;;;;;;;18.40;5.65;;;;;;;12.99;100.00;101250.19;3596491;40;20028;-62
2021/08/09 03:42:47;;;;;;;19.70;6.47;;;;;;;13.04;100.00;101250.59;3597877;39;20020;-62
2021/08/09 03:45:15;;;;;;;14.95;5.65;;;;;;;13.03;100.00;101257.00;3597764;39;20050;-63
2021/08/09 03:47:41;;;;;;;14.00;5.57;;;;;;;13.02;100.00;101257.16;3597687;39;20031;-61
2021/08/09 03:50:09;;;;;;;17.15;5.40;;;;;;;12.93;100.00;101254.28;3597318;39;20274;-61
2021/08/09 03:52:35;;;;;;;21.55;6.07;;;;;;;12.95;100.00;101246.88;3596352;39;20124;-61
2021/08/09 03:55:01;;;;;;;13.05;5.85;;;;;;;12.96;100.00;101248.59;3594923;39;20055;-61
2021/08/09 03:57:28;;;;;;;16.17;5.35;;;;;;;12.94;100.00;101253.31;3595957;39;20491;-61
2021/08/09 03:59:54;;;;;;;17.45;5.40;;;;;;;12.99;100.00;101261.00;3595898;39;20042;-61
2021/08/09 04:02:29;;;;;;;12.57;5.72;;;;;;;12.97;100.00;101253.03;3594981;39;20036;-61
2021/08/09 04:04:57;;;;;;;14.32;5.20;;;;;;;12.99;100.00;101252.03;3597317;39;20372;-61
2021/08/09 04:07:24;;;;;;;19.88;5.82;;;;;;;13.00;100.00;101267.22;3596340;39;20387;-62
2021/08/09 04:09:51;;;;;;;22.65;5.95;;;;;;;12.99;100.00;101269.09;3596647;39;20122;-62
2021/08/09 04:12:17;;;;;;;18.95;6.03;;;;;;;13.00;100.00;101267.22;3596088;39;20094;-61
2021/08/09 04:14:43;;;;;;;16.65;5.80;;;;;;;12.96;100.00;101267.53;3596028;39;20062;-61
2021/08/09 04:17:10;;;;;;;14.57;5.32;;;;;;;12.97;100.00;101266.53;3596768;39;20402;-62
2021/08/09 04:19:38;;;;;;;14.98;5.53;;;;;;;12.97;100.00;101266.53;3597183;39;20088;-61
2021/08/09 04:22:05;;;;;;;13.60;5.43;;;;;;;12.92;100.00;101271.50;3596110;39;20036;-61
2021/08/09 04:24:31;;;;;;;13.93;5.57;;;;;;;12.94;100.00;101269.53;3594296;39;20108;-61
2021/08/09 04:26:57;;;;;;;17.67;5.10;;;;;;;12.96;100.00;101261.28;3596791;40;20038;-61
2021/08/09 04:29:24;;;;;;;19.05;5.63;;;;;;;12.95;100.00;101271.22;3596303;39;20032;-61
2021/08/09 04:31:50;;;;;;;21.77;6.65;;;;;;;12.96;100.00;101275.63;3597119;39;20038;-62
2021/08/09 04:34:17;;;;;;;18.45;5.55;;;;;;;12.95;100.00;101273.91;3595613;40;20035;-61
2021/08/09 04:36:45;;;;;;;19.45;5.28;;;;;;;13.00;100.00;101276.22;3597024;39;20044;-61
2021/08/09 04:39:11;;;;;;;18.13;5.80;;;;;;;13.00;100.00;101275.34;3596586;39;20041;-61
2021/08/09 04:41:37;;;;;;;14.68;5.75;;;;;;;12.94;100.00;101279.44;3596605;39;20044;-61
2021/08/09 04:44:05;;;;;;;15.80;5.85;;;;;;;12.95;100.00;101282.00;3597187;39;20325;-61
2021/08/09 04:46:32;;;;;;;14.75;5.50;;;;;;;12.97;100.00;101288.16;3598317;39;20295;-61
2021/08/09 04:48:58;;;;;;;19.70;5.63;;;;;;;12.96;100.00;101281.03;3598002;39;20059;-61
2021/08/09 04:51:25;;;;;;;17.90;6.22;;;;;;;12.96;100.00;101299.94;3598535;40;20030;-61
2021/08/09 04:53:53;;;;;;;13.13;4.90;;;;;;;13.00;100.00;101294.25;3596222;39;20391;-61
2021/08/09 04:56:19;;;;;;;18.48;5.68;;;;;;;12.96;100.00;101302.66;3595299;39;20037;-61
2021/08/09 04:58:46;;;;;;;16.63;5.57;;;;;;;13.01;100.00;101296.81;3595656;39;20646;-61
2021/08/09 05:01:12;;;;;;;24.52;6.15;;;;;;;13.07;100.00;101304.38;3598538;39;20044;-61
2021/08/09 05:03:39;;;;;;;19.25;5.38;;;;;;;13.12;100.00;101298.53;3597688;39;20032;-61
2021/08/09 05:06:08;;;;;;;23.80;6.63;;;;;;;13.17;100.00;101292.72;3598388;39;20283;-62
2021/08/09 05:11:45;;;;;;;13.52;4.85;;;;;;;13.28;100.00;101296.13;3632416;22;20343;-61
2021/08/09 05:14:11;;;;;;;16.33;5.93;;;;;;;13.30;100.00;101299.50;3596941;39;20310;-61
2021/08/09 05:16:39;;;;;;;17.20;4.50;;;;;;;13.37;100.00;101288.16;3597865;39;20413;-61
2021/08/09 05:19:07;;;;;;;13.63;6.35;;;;;;;13.41;100.00;101295.00;3598547;39;20053;-62
2021/08/09 05:21:35;;;;;;;19.80;5.53;;;;;;;13.44;100.00;101295.56;3598508;39;20037;-61
2021/08/09 05:24:04;;;;;;;15.15;5.45;;;;;;;13.47;100.00;101308.81;3595509;39;20034;-62
2021/08/09 05:26:31;;;;;;;21.70;5.28;;;;;;;13.54;100.00;101308.22;3594360;39;20056;-61
2021/08/09 05:28:59;;;;;;;18.73;6.07;;;;;;;13.52;100.00;101311.06;3597485;39;20301;-62
2021/08/09 05:31:26;;;;;;;17.52;5.40;;;;;;;13.60;100.00;101308.50;3597243;39;20052;-61
2021/08/09 05:33:53;;;;;;;12.68;5.07;;;;;;;13.65;100.00;101311.63;3596972;39;20035;-61
2021/08/09 05:36:19;;;;;;;15.48;4.65;;;;;;;13.64;100.00;101318.00;3596933;39;20036;-61
2021/08/09 05:38:46;;;;;;;15.65;5.80;;;;;;;13.69;100.00;101311.31;3598619;39;20039;-61
2021/08/09 05:41:12;;;;;;;12.45;4.68;;;;;;;13.77;100.00;101308.75;3597501;39;20036;-61
2021/08/09 05:43:39;;;;;;;23.92;5.18;;;;;;;13.83;100.00;101310.88;3598424;39;20038;-62
2021/08/09 05:46:06;;;;;;;15.60;4.90;;;;;;;13.91;100.00;101302.84;3592778;39;20399;-61
2021/08/09 05:48:34;;;;;;;15.63;4.88;;;;;;;13.96;100.00;101308.69;3597896;39;20044;-61
2021/08/09 05:51:00;;;;;;;13.30;4.78;;;;;;;13.97;100.00;101306.81;3598063;39;20047;-61
2021/08/09 05:53:28;;;;;;;13.60;4.70;;;;;;;13.96;100.00;101308.69;3596415;39;20360;-61
2021/08/09 05:55:54;;;;;;;11.70;4.25;;;;;;;13.99;100.00;101312.97;3596637;39;20036;-61
2021/08/09 05:58:21;;;;;;;16.45;4.55;;;;;;;13.97;100.00;101313.09;3596541;39;20052;-61
2021/08/09 06:00:48;;;;;;;11.27;4.20;;;;;;;13.99;100.00;101313.81;3595733;39;20054;-61
2021/08/09 06:03:18;;;;;;;16.02;4.47;;;;;;;13.97;100.00;101313.09;3598033;39;20035;-61
2021/08/09 06:05:45;;;;;;;18.25;5.13;;;;;;;14.01;100.00;101322.63;3598176;39;20032;-61
2021/08/09 06:08:12;;;;;;;12.13;4.18;;;;;;;14.02;100.00;101321.63;3598462;39;20036;-61
2021/08/09 06:10:39;;;;;;;13.98;5.13;;;;;;;14.04;100.00;101323.34;3597196;39;20066;-62
2021/08/09 06:13:05;;;;;;;14.57;4.50;;;;;;;14.07;100.00;101328.44;3597560;39;20046;-62
2021/08/09 06:15:31;;;;;;;16.00;4.88;;;;;;;14.08;100.00;101330.16;3596342;39;20033;-61
2021/08/09 06:17:58;;;;;;;17.88;4.45;;;;;;;14.09;100.00;101327.31;3597454;39;20032;-61
2021/08/09 06:20:27;;;;;;;15.90;4.97;;;;;;;14.17;100.00;101337.41;3597132;39;20066;-61
2021/08/09 06:22:53;;;;;;;16.10;4.90;;;;;;;14.20;100.00;101328.97;3597657;39;20056;-61
2021/08/09 06:25:19;;;;;;;10.90;4.32;;;;;;;14.21;100.00;101341.53;3596972;39;20039;-61
2021/08/09 06:27:46;;;;;;;16.80;5.00;;;;;;;14.26;100.00;101333.78;3597566;39;20044;-61
2021/08/09 06:30:13;;;;;;;12.63;4.80;;;;;;;14.23;100.00;101342.22;3597170;39;20037;-61
2021/08/09 06:32:39;;;;;;;22.75;5.32;;;;;;;14.33;100.00;101334.91;3597787;39;20032;-61
2021/08/09 06:35:07;;;;;;;14.20;4.47;;;;;;;14.39;100.00;101330.75;3597931;39;20087;-61
2021/08/09 06:37:35;;;;;;;15.82;4.18;;;;;;;14.50;100.00;101326.97;3598152;39;20400;-61
2021/08/09 06:40:01;;;;;;;15.10;4.43;;;;;;;14.50;100.00;101329.69;3597947;39;20035;-61
2021/08/09 06:42:28;;;;;;;9.73;3.95;;;;;;;14.59;100.00;101323.38;3597980;39;20044;-61
2021/08/09 06:44:54;;;;;;;16.88;4.30;;;;;;;14.96;100.00;101327.03;3596557;39;20028;-61
2021/08/09 06:47:21;;;;;;;13.75;4.00;;;;;;;14.95;100.00;101328.03;3596550;39;20035;-61
2021/08/09 06:49:48;;;;;;;15.85;4.72;;;;;;;15.18;100.00;101328.41;3597730;39;20397;-61
2021/08/09 06:52:18;;;;;;;16.40;4.75;;;;;;;15.45;100.00;101330.22;3596418;39;20114;-61
2021/08/09 06:54:46;;;;;;;10.55;4.03;;;;;;;15.73;100.00;101322.78;3597311;39;20040;-61
2021/08/09 06:57:13;;;;;;;13.60;4.07;;;;;;;15.63;100.00;101322.03;3596028;39;20032;-61
2021/08/09 06:59:39;;;;;;;13.75;4.00;;;;;;;15.85;100.00;101326.13;3596224;39;20391;-61
2021/08/09 07:02:07;;;;;;;9.98;3.70;;;;;;;15.86;100.00;101327.00;3596909;39;20043;-61
2021/08/09 07:04:34;;;;;;;13.43;3.97;;;;;;;15.71;100.00;101323.97;3597964;39;20229;-61
2021/08/09 07:07:00;;;;;;;10.48;3.60;;;;;;;15.70;100.00;101328.53;3597981;39;20280;-61
2021/08/09 07:09:27;;;;;;;14.80;3.70;;;;;;;15.85;100.00;101331.56;3596236;39;20052;-61
2021/08/09 07:11:54;;;;;;;13.00;3.88;;;;;;;15.88;100.00;101324.97;3597690;39;20051;-61
2021/08/09 07:14:21;;;;;;;12.32;3.75;;;;;;;16.00;100.00;101328.25;3596126;39;20068;-61
2021/08/09 07:16:49;;;;;;;15.07;3.65;;;;;;;15.90;100.00;101326.50;3597582;39;20056;-61
2021/08/09 07:19:16;;;;;;;9.70;3.92;;;;;;;16.18;100.00;101325.47;3596791;39;20048;-61
2021/08/09 07:21:42;;;;;;;12.82;3.30;;;;;;;16.15;100.00;101313.09;3598175;39;20039;-61
2021/08/09 07:24:09;;;;;;;12.38;3.83;;;;;;;16.16;100.00;101327.50;3593651;39;20456;-61
2021/08/09 07:26:35;;;;;;;13.95;3.50;;;;;;;16.28;100.00;101320.78;3596072;39;20055;-61
2021/08/09 07:29:03;;;;;;;10.35;3.55;;;;;;;16.19;100.00;101322.59;3596289;39;20068;-61
2021/08/09 07:31:30;;;;;;;16.83;3.97;;;;;;;16.32;100.00;101311.28;3596751;39;20024;-61
2021/08/09 07:33:56;;;;;;;9.98;3.60;;;;;;;16.33;100.00;101320.28;3597418;39;20053;-61
2021/08/09 07:36:22;;;;;;;10.07;3.13;;;;;;;16.40;100.00;101324.03;3595883;39;20384;-61
2021/08/09 07:38:49;;;;;;;10.32;3.22;;;;;;;16.78;100.00;101322.69;3597881;39;20403;-61
2021/08/09 07:41:16;;;;;;;12.07;3.90;;;;;;;16.59;100.00;101325.66;3597266;39;20032;-61
2021/08/09 07:43:42;;;;;;;12.23;3.08;;;;;;;16.55;100.00;101319.72;3596777;39;20028;-61
2021/08/09 07:46:10;;;;;;;12.05;3.00;;;;;;;16.80;100.00;101322.50;3597709;39;20032;-61
2021/08/09 07:48:36;;;;;;;9.35;2.92;;;;;;;17.02;100.00;101312.91;3597393;39;20310;-61
2021/08/09 07:51:03;;;;;;;10.48;3.03;;;;;;;17.06;100.00;101319.69;3597889;39;20064;-61
2021/08/09 07:53:30;;;;;;;10.50;3.25;;;;;;;16.92;100.00;101326.66;3595977;39;20062;-61
2021/08/09 07:55:56;;;;;;;8.50;2.78;;;;;;;16.89;100.00;101321.53;3597201;39;20032;-61
2021/08/09 07:58:23;;;;;;;14.75;3.20;;;;;;;17.03;100.00;101330.91;3595112;39;20044;-61
2021/08/09 08:00:51;;;;;;;8.15;3.47;;;;;;;16.98;100.00;101322.41;3596591;39;20037;-61
2021/08/09 08:03:19;;;;;;;7.90;3.30;;;;;;;17.04;100.00;101316.28;3594364;39;20036;-61
2021/08/09 08:05:46;;;;;;;10.02;3.03;;;;;;;17.22;100.00;101323.47;3597295;39;20282;-61
2021/08/09 08:08:12;;;;;;;8.85;2.80;;;;;;;17.15;100.00;101324.13;3596623;39;20036;-61
2021/08/09 08:10:39;;;;;;;10.35;3.13;;;;;;;17.14;100.00;101317.00;3596997;39;20467;-61
2021/08/09 08:13:05;;;;;;;10.18;2.65;;;;;;;17.44;100.00;101324.66;3597783;39;20066;-61
2021/08/09 08:15:32;;;;;;;7.45;2.90;;;;;;;17.20;100.00;101318.19;3594189;39;20379;-62
2021/08/09 08:17:58;;;;;;;9.88;2.97;;;;;;;17.25;100.00;101323.97;3598555;39;20024;-61
2021/08/09 08:20:26;;;;;;;8.13;2.40;;;;;;;17.47;100.00;101327.88;3598142;39;20056;-62
2021/08/09 08:22:54;;;;;;;5.97;2.42;;;;;;;17.48;100.00;101326.03;3597036;39;20032;-62
2021/08/09 08:25:21;;;;;;;8.68;2.33;;;;;;;17.62;100.00;101327.19;3598119;39;20052;-61
2021/08/09 08:27:47;;;;;;;6.30;2.20;;;;;;;17.76;100.00;101334.69;3598484;39;20040;-61
2021/08/09 08:30:15;;;;;;;6.45;2.33;;;;;;;17.78;100.00;101334.50;3597355;39;20040;-62
2021/08/09 08:32:41;;;;;;;9.55;2.63;;;;;;;18.08;100.00;101334.81;3592376;39;20044;-62
2021/08/09 08:35:09;;;;;;;7.50;2.17;;;;;;;17.97;100.00;101339.59;3597751;39;20327;-61
2021/08/09 08:37:36;;;;;;;10.43;2.67;;;;;;;17.88;100.00;101337.06;3599086;39;20370;-62
2021/08/09 08:40:04;;;;;;;6.30;2.47;;;;;;;18.07;100.00;101344.03;3597824;39;20032;-62
2021/08/09 08:42:31;;;;;;;9.98;2.50;;;;;;;18.19;100.00;101335.31;3599292;39;20373;-61
2021/08/09 08:44:58;;;;;;;9.00;2.40;;;;;;;18.29;100.00;101334.28;3598513;39;20036;-61
2021/08/09 08:47:25;;;;;;;7.63;2.20;;;;;;;18.08;100.00;101349.31;3598570;39;20040;-61
2021/08/09 08:49:51;;;;;;;5.13;2.20;;;;;;;18.33;100.00;101344.63;3597483;39;20072;-62
2021/08/09 08:52:18;;;;;;;7.10;2.10;;;;;;;18.50;100.00;101345.41;3597694;39;20044;-62
2021/08/09 08:54:46;;;;;;;7.00;2.20;;;;;;;18.66;100.00;101332.75;3598164;39;20056;-61
2021/08/09 08:57:20;;;;;;;8.68;2.30;;;;;;;18.85;100.00;101332.31;3596651;39;20025;-62
2021/08/09 08:59:48;;;;;;;6.97;2.25;;;;;;;18.72;100.00;101334.75;3595261;39;20365;-62
2021/08/09 09:02:31;;;;;;;4.82;1.80;;;;;;;18.97;100.00;101334.66;3597120;39;20044;-62
2021/08/09 09:05:09;;;;;;;8.13;1.83;;;;;;;18.78;100.00;101335.94;3597638;39;20056;-64
2021/08/09 09:07:36;;;;;;;5.68;1.80;;;;;;;18.84;100.00;101341.50;3597336;39;20435;-62
2021/08/09 09:10:16;;;;;;;6.40;2.00;;;;;;;18.48;100.00;101333.84;3597098;39;20089;-62
2021/08/09 09:12:42;;;;;;;5.55;2.08;;;;;;;18.14;100.00;101335.00;3597302;39;20031;-62
2021/08/09 09:15:10;;;;;;;7.38;2.45;;;;;;;18.37;100.00;101328.78;3596587;39;20036;-62
2021/08/09 09:17:38;;;;;;;9.13;2.38;;;;;;;18.74;100.00;101324.50;3598533;39;20438;-62
2021/08/09 09:20:22;;;;;;;6.32;2.08;;;;;;;18.41;100.00;101332.00;3596675;39;20043;-62
2021/08/09 09:22:49;;;;;;;5.63;2.15;;;;;;;18.99;100.00;101332.59;3597810;39;20113;-62
2021/08/09 09:25:17;;;;;;;6.72;1.80;;;;;;;18.76;100.00;101337.97;3598176;39;20028;-63
2021/08/09 09:27:44;;;;;;;10.47;2.30;;;;;;;18.82;100.00;101327.22;3595599;39;20391;-63
2021/08/09 09:30:26;;;;;;;8.50;2.35;;;;;;;18.60;100.00;101328.84;3598055;39;20305;-62
2021/08/09 09:33:00;;;;;;;3.78;1.80;;;;;;;18.76;100.00;101333.38;3598601;39;20401;-62
2021/08/09 09:35:26;;;;;;;7.45;1.88;;;;;;;18.73;100.00;101328.28;3599136;39;20032;-62
2021/08/09 09:37:53;;;;;;;6.13;1.95;;;;;;;19.18;100.00;101323.91;3598999;39;20054;-63
2021/08/09 09:40:21;;;;;;;6.35;1.88;;;;;;;19.56;100.00;101326.69;3594454;39;20048;-63
2021/08/09 09:42:48;;;;;;;5.15;2.25;;;;;;;19.42;100.00;101319.34;3598989;39;20043;-63
2021/08/09 09:45:20;;;;;;;10.63;2.50;;;;;;;19.47;100.00;101325.06;3598511;39;20054;-62
2021/08/09 09:47:58;;;;;;;6.25;2.17;;;;;;;19.12;100.00;101321.09;3598662;39;20140;-62
2021/08/09 09:50:25;;;;;;;9.70;2.40;;;;;;;19.26;100.00;101323.88;3598183;39;20054;-62
2021/08/09 09:52:52;;;;;;;7.28;2.25;;;;;;;19.25;100.00;101326.78;3598362;39;20266;-62
2021/08/09 09:55:18;;;;;;;8.05;2.72;;;;;;;19.32;100.00;101324.19;3598373;39;20050;-62
2021/08/09 09:57:47;;;;;;;8.15;2.15;;;;;;;19.46;100.00;101319.81;3595898;39;20064;-62
2021/08/09 10:00:15;;;;;;;7.43;2.25;;;;;;;19.15;100.00;101316.09;3598342;39;20422;-62
2021/08/09 10:02:44;;;;;;;6.18;2.35;;;;;;;19.00;100.00;101320.66;3598272;39;20039;-61
2021/08/09 10:05:12;;;;;;;12.75;3.05;;;;;;;18.95;100.00;101331.25;3595571;39;20054;-62
2021/08/09 10:07:40;;;;;;;7.68;2.20;;;;;;;18.90;100.00;101323.59;3591107;39;20399;-63
2021/08/09 10:10:08;;;;;;;6.45;2.53;;;;;;;19.11;100.00;101319.38;3592797;39;20056;-62
2021/08/09 10:12:36;;;;;;;5.15;2.53;;;;;;;19.13;100.00;101318.19;3597798;39;20048;-62
2021/08/09 10:15:06;;;;;;;4.68;2.00;;;;;;;19.22;100.00;101327.16;3597460;39;20274;-62
2021/08/09 10:17:36;;;;;;;8.32;2.35;;;;;;;19.42;100.00;101325.63;3592709;39;20048;-62
2021/08/09 10:20:06;;;;;;;5.47;2.15;;;;;;;19.54;100.00;101326.03;3598225;39;20063;-62
2021/08/09 10:22:33;;;;;;;9.80;2.25;;;;;;;19.75;100.00;101321.75;3594070;39;20056;-62
2021/08/09 10:25:00;;;;;;;7.85;1.80;;;;;;;19.94;100.00;101326.72;3596042;39;20281;-62
2021/08/09 10:27:52;;;;;;;5.00;2.20;;;;;;;19.95;100.00;101333.88;3594870;39;20036;-62
2021/08/09 10:30:22;;;;;;;4.45;2.30;;;;;;;19.77;100.00;101328.75;3597135;39;20125;-62
2021/08/09 10:32:52;;;;;;;5.55;2.28;;;;;;;19.63;100.00;101317.78;3598840;39;20372;-62
2021/08/09 10:36:04;;;;;;;4.45;2.10;;;;;;;19.79;100.00;101317.66;3595242;39;20107;-63
2021/08/09 10:38:36;;;;;;;4.18;2.00;;;;;;;19.20;100.00;101326.50;3595783;39;20406;-63
2021/08/09 10:41:33;;;;;;;3.85;1.90;;;;;;;19.38;100.00;101323.47;3592987;39;20106;-63
2021/08/09 10:44:25;;;;;;;6.97;2.40;;;;;;;19.32;100.00;101318.72;3597989;39;20028;-63
2021/08/09 10:46:54;;;;;;;5.57;1.95;;;;;;;19.42;100.00;101322.91;3596691;39;20079;-63
2021/08/09 10:49:57;;;;;;;5.85;2.20;;;;;;;19.37;100.00;101321.75;3598391;39;20036;-63
2021/08/09 10:52:34;;;;;;;6.55;2.05;;;;;;;19.57;100.00;101319.38;3593976;39;20103;-63
2021/08/09 10:55:43;;;;;;;4.93;2.13;;;;;;;19.32;100.00;101329.66;3597537;39;20056;-63
2021/08/09 10:58:11;;;;;;;4.53;1.95;;;;;;;19.03;100.00;101329.31;3593705;39;20059;-63
2021/08/09 11:01:01;;;;;;;8.00;2.20;;;;;;;19.48;100.00;101326.78;3596758;39;20028;-63
2021/08/09 11:03:29;;;;;;;5.15;2.20;;;;;;;19.90;100.00;101335.47;3590204;39;20095;-63
2021/08/09 11:05:56;;;;;;;4.75;1.92;;;;;;;19.97;100.00;101332.84;3597853;39;20031;-63
2021/08/09 11:08:32;;;;;;;4.43;2.30;;;;;;;19.98;100.00;101334.53;3596767;39;20076;-63
2021/08/09 11:11:00;;;;;;;7.50;2.08;;;;;;;19.70;100.00;101332.38;3594150;39;20060;-62
2021/08/09 11:13:28;;;;;;;6.57;2.00;;;;;;;19.48;100.00;101332.25;3597949;39;20048;-63
2021/08/09 11:15:55;;;;;;;3.95;1.80;;;;;;;19.78;100.00;101344.09;3596815;39;20032;-63
2021/08/09 11:18:22;;;;;;;19.38;2.40;;;;;;;19.57;100.00;101335.75;3595294;39;20075;-62
2021/08/09 11:21:00;;;;;;;7.50;2.00;;;;;;;19.75;100.00;101357.25;3596197;39;20041;-63
2021/08/09 11:23:27;;;;;;;5.70;2.17;;;;;;;19.37;100.00;101347.16;3593406;39;20033;-62
2021/08/09 11:25:53;;;;;;;5.60;1.70;;;;;;;19.33;100.00;101339.50;3597422;39;20042;-63
2021/08/09 11:28:23;;;;;;;4.85;1.90;;;;;;;19.12;100.00;101351.09;3597702;39;20052;-63
2021/08/09 11:30:51;;;;;;;4.55;2.15;;;;;;;19.09;100.00;101352.31;3596859;39;20028;-62